Time;durP1;ratioP1;P1;durP2;ratioP2;P2;SDS_P1;SDS_P2;PMS_P1;PMS_P2;Temp;Humidity;BMP_temperature;BMP_pressure;BME280_temperature;BME280_humidity;BME280_pressure;Samples;Min_cycle;Max_cycle;Signal;HPM_P1;HPM_P2
2023/03/20 00:02:44;;;;;;;8.07;5.70;;;;;;;19.52;47.54;96876.47;10379044;28;20041;-76
2023/03/20 00:08:03;;;;;;;8.25;5.88;;;;;;;19.52;47.50;96870.25;10365161;28;20042;-76
2023/03/20 00:13:27;;;;;;;8.68;5.90;;;;;;;19.51;47.43;96877.56;10337585;28;20100;-76
2023/03/20 00:18:46;;;;;;;8.18;5.75;;;;;;;19.51;47.42;96879.50;10364530;28;20049;-75
2023/03/20 00:24:06;;;;;;;7.50;5.03;;;;;;;19.51;47.46;96871.38;10377991;28;20049;-76
2023/03/20 00:29:29;;;;;;;7.45;4.97;;;;;;;19.49;47.31;96879.03;10350926;28;20060;-75
2023/03/20 00:34:49;;;;;;;7.47;5.40;;;;;;;19.49;47.33;96876.31;10377246;28;20042;-75
2023/03/20 00:40:09;;;;;;;8.25;5.65;;;;;;;19.47;47.24;96873.16;10363811;28;20046;-75
2023/03/20 00:45:30;;;;;;;6.32;4.85;;;;;;;19.46;47.31;96863.44;10392231;28;20046;-75
2023/03/20 00:50:50;;;;;;;7.45;5.38;;;;;;;19.46;47.37;96863.44;10391891;28;20103;-75
2023/03/20 00:56:27;;;;;;;6.93;5.03;;;;;;;19.44;47.30;96860.28;10376915;28;20046;-75
2023/03/20 01:01:46;;;;;;;6.03;4.72;;;;;;;19.43;47.23;96858.69;10391358;28;20064;-75
2023/03/20 01:07:11;;;;;;;6.50;4.57;;;;;;;19.42;47.11;96863.28;10376551;28;20038;-75
2023/03/20 01:12:30;;;;;;;6.68;4.88;;;;;;;19.41;47.28;96861.72;10362578;28;20549;-75
2023/03/20 01:17:51;;;;;;;7.07;5.13;;;;;;;19.40;47.21;96872.84;10362361;28;20071;-75
2023/03/20 01:23:11;;;;;;;6.35;4.85;;;;;;;19.40;47.25;96867.44;10390672;28;20045;-75
2023/03/20 01:28:31;;;;;;;6.50;4.88;;;;;;;19.39;47.20;96863.16;10351831;28;20104;-75
2023/03/20 01:33:51;;;;;;;8.02;5.00;;;;;;;19.37;47.16;96866.19;10375583;28;20103;-75
2023/03/20 01:39:10;;;;;;;6.93;5.03;;;;;;;19.36;47.14;96865.38;10361559;28;20042;-75
2023/03/20 01:44:32;;;;;;;6.55;4.57;;;;;;;19.36;47.12;96867.28;10360591;28;20046;-75
2023/03/20 01:50:25;;;;;;;5.20;4.32;;;;;;;19.34;47.16;96866.81;10361329;28;20046;-75
2023/03/20 01:55:55;;;;;;;6.20;4.70;;;;;;;19.33;47.05;96871.41;10360890;28;20430;-75
2023/03/20 02:01:17;;;;;;;6.63;4.35;;;;;;;19.32;47.01;96866.34;10374279;28;20069;-75
2023/03/20 02:06:39;;;;;;;5.70;4.28;;;;;;;19.31;47.16;96864.75;10360689;28;20104;-75
2023/03/20 02:12:24;;;;;;;6.55;4.40;;;;;;;19.30;47.03;96855.84;10377847;28;20053;-75
2023/03/20 02:17:45;;;;;;;7.30;4.38;;;;;;;19.30;46.91;96857.75;10346601;28;20376;-76
2023/03/20 02:23:30;;;;;;;7.00;4.05;;;;;;;19.28;46.96;96860.00;10360130;28;20202;-76
2023/03/20 02:29:27;;;;;;;6.20;4.22;;;;;;;19.27;47.01;96863.81;10362584;28;20057;-76
2023/03/20 02:35:33;;;;;;;4.90;4.10;;;;;;;19.25;46.84;96866.03;10269136;28;20061;-76
2023/03/20 02:41:22;;;;;;;7.85;4.43;;;;;;;19.24;46.79;96859.84;10328426;28;20062;-72
2023/03/20 02:46:48;;;;;;;4.43;3.80;;;;;;;19.24;46.86;96862.53;10345956;28;20042;-73
2023/03/20 02:52:32;;;;;;;5.00;4.10;;;;;;;19.21;46.96;96857.78;10372869;28;20046;-73
2023/03/20 02:58:01;;;;;;;5.72;4.20;;;;;;;19.21;46.80;96852.38;10372269;28;20038;-73
2023/03/20 03:03:37;;;;;;;5.38;3.80;;;;;;;19.20;46.86;96852.69;10358775;28;20045;-73
2023/03/20 03:09:02;;;;;;;5.13;3.95;;;;;;;19.19;46.76;96851.09;10358608;28;20060;-73
2023/03/20 03:14:34;;;;;;;5.70;3.95;;;;;;;19.17;46.77;96860.34;10358580;28;20490;-72
2023/03/20 03:19:59;;;;;;;4.28;3.67;;;;;;;19.15;46.79;96854.47;10358453;28;20041;-72
2023/03/20 03:25:25;;;;;;;5.47;3.87;;;;;;;19.16;46.73;96853.31;10357493;28;20053;-73
2023/03/20 03:30:46;;;;;;;4.85;4.00;;;;;;;19.15;46.66;96859.84;10358564;28;20061;-73
2023/03/20 03:36:24;;;;;;;5.05;3.88;;;;;;;19.14;46.72;96857.47;10358282;28;20048;-73
2023/03/20 03:41:58;;;;;;;5.32;4.05;;;;;;;19.11;46.76;96856.22;10386492;28;20049;-72
2023/03/20 03:47:40;;;;;;;4.28;3.70;;;;;;;19.11;46.63;96864.31;10358314;28;20038;-72
2023/03/20 03:53:03;;;;;;;4.38;3.47;;;;;;;19.10;46.57;96872.72;10357837;28;20050;-72
2023/03/20 03:58:30;;;;;;;4.80;3.78;;;;;;;19.08;46.69;96872.25;10357801;28;20096;-72
2023/03/20 04:03:53;;;;;;;5.03;3.70;;;;;;;19.07;46.85;96871.47;10357643;28;20050;-72
2023/03/20 04:09:12;;;;;;;4.35;3.63;;;;;;;19.06;46.63;96867.16;10361722;28;20046;-72
2023/03/20 04:14:32;;;;;;;4.00;3.60;;;;;;;19.05;46.45;96875.56;10378555;28;20049;-72
2023/03/20 04:19:51;;;;;;;4.18;3.75;;;;;;;19.04;46.55;96880.19;10378167;28;20042;-72
2023/03/20 04:25:18;;;;;;;4.05;3.53;;;;;;;19.03;46.56;96877.81;10363427;28;20042;-72
2023/03/20 04:30:38;;;;;;;4.55;3.53;;;;;;;19.01;46.58;96883.50;10364982;28;20117;-72
2023/03/20 04:36:09;;;;;;;4.72;3.53;;;;;;;19.01;46.90;96877.31;10377588;28;20046;-72
2023/03/20 04:41:29;;;;;;;4.90;3.67;;;;;;;19.02;46.57;96878.94;10377414;28;20046;-72
2023/03/20 04:46:50;;;;;;;4.18;3.45;;;;;;;19.00;46.68;96876.53;10350403;28;20046;-73
2023/03/20 04:52:10;;;;;;;4.20;3.25;;;;;;;18.99;46.61;96880.34;10363588;28;20049;-72
2023/03/20 04:57:33;;;;;;;4.70;3.40;;;;;;;18.97;46.70;96877.16;10363718;28;20042;-73
2023/03/20 05:02:53;;;;;;;3.70;3.28;;;;;;;18.96;46.66;96891.78;10349831;28;20046;-75
2023/03/20 05:08:13;;;;;;;3.75;3.25;;;;;;;18.96;46.87;96899.88;10376363;28;20046;-75
2023/03/20 05:13:34;;;;;;;4.07;3.30;;;;;;;18.94;47.06;96899.41;10362985;28;20049;-76
2023/03/20 05:19:12;;;;;;;3.57;2.97;;;;;;;18.93;47.15;96895.94;10378583;28;20068;-76
2023/03/20 05:24:52;;;;;;;3.85;3.17;;;;;;;18.93;47.37;96895.94;10389730;28;20034;-75
2023/03/20 05:30:37;;;;;;;3.70;3.17;;;;;;;18.93;47.28;96906.72;10375837;28;20045;-75
2023/03/20 05:36:15;;;;;;;3.55;3.15;;;;;;;18.92;47.18;96905.13;10390280;28;20049;-75
2023/03/20 05:42:09;;;;;;;4.15;3.10;;;;;;;18.92;47.01;96901.63;10380140;28;20096;-75
2023/03/20 05:47:32;;;;;;;4.05;2.97;;;;;;;18.90;47.05;96903.88;10375571;28;20054;-76
2023/03/20 05:53:17;;;;;;;3.20;2.88;;;;;;;18.90;47.06;96912.75;10378746;28;20053;-75
2023/03/20 05:58:43;;;;;;;3.15;2.85;;;;;;;18.90;47.05;96915.44;10375556;28;20041;-75
2023/03/20 06:04:41;;;;;;;3.43;2.90;;;;;;;18.91;47.02;96919.72;10303978;28;20058;-76
2023/03/20 06:10:36;;;;;;;4.35;3.03;;;;;;;18.92;47.48;96921.31;10308178;28;20086;-80
2023/03/20 06:15:55;;;;;;;4.57;3.00;;;;;;;18.94;47.44;96929.13;10373871;28;20049;-72
2023/03/20 06:21:16;;;;;;;3.63;2.97;;;;;;;18.95;47.32;96930.69;10373383;28;20045;-72
2023/03/20 06:26:36;;;;;;;5.93;5.32;;;;;;;18.90;46.13;96944.34;10341340;28;20064;-71
2023/03/20 06:32:00;;;;;;;3.92;3.45;;;;;;;18.91;47.08;96951.31;10372728;28;20056;-73
2023/03/20 06:37:22;;;;;;;4.50;3.60;;;;;;;18.94;46.89;96951.50;10359965;28;20505;-72
2023/03/20 06:42:42;;;;;;;5.72;3.50;;;;;;;18.99;46.95;96958.63;10359382;28;20100;-72
2023/03/20 06:48:10;;;;;;;4.75;3.40;;;;;;;19.02;46.89;96958.00;10359395;28;20045;-72
2023/03/20 06:53:29;;;;;;;5.05;3.53;;;;;;;19.05;47.23;96962.78;10359253;28;20050;-72
2023/03/20 06:59:01;;;;;;;3.97;3.67;;;;;;;19.08;47.18;96967.53;10360375;28;20099;-72
2023/03/20 07:04:21;;;;;;;3.78;3.38;;;;;;;19.11;47.19;96969.63;10345321;28;20409;-72
2023/03/20 07:09:45;;;;;;;5.50;3.47;;;;;;;19.14;47.21;96968.97;10372483;28;20053;-72
2023/03/20 07:15:05;;;;;;;3.85;3.45;;;;;;;19.17;47.10;96970.25;10372326;28;20038;-72
2023/03/20 07:20:26;;;;;;;3.25;2.95;;;;;;;19.22;47.24;96977.41;10358637;28;20050;-72
2023/03/20 07:25:46;;;;;;;5.95;3.70;;;;;;;19.24;46.76;96983.28;10369551;28;20062;-72
2023/03/20 07:31:18;;;;;;;4.25;3.85;;;;;;;19.25;46.50;96982.97;10358761;28;20049;-72
2023/03/20 07:36:40;;;;;;;4.22;3.83;;;;;;;19.29;46.27;96991.25;10345390;28;20045;-72
2023/03/20 07:41:59;;;;;;;5.82;3.78;;;;;;;19.32;46.31;96993.28;10387720;28;20042;-72
2023/03/20 07:47:34;;;;;;;4.30;3.53;;;;;;;19.33;46.26;96997.59;10366166;28;20442;-72
2023/03/20 07:52:57;;;;;;;4.88;3.67;;;;;;;19.37;46.49;96995.84;10365688;28;20057;-72
2023/03/20 07:58:17;;;;;;;4.45;3.55;;;;;;;19.40;46.36;97002.50;10393989;28;20057;-72
2023/03/20 08:03:37;;;;;;;5.53;3.88;;;;;;;19.42;46.26;96998.38;10365312;28;20042;-72
2023/03/20 08:08:56;;;;;;;5.55;3.53;;;;;;;19.45;46.14;96992.34;10378837;28;20045;-71
2023/03/20 08:14:16;;;;;;;4.32;3.55;;;;;;;19.49;46.31;96997.91;10351462;28;20061;-72
2023/03/20 08:19:37;;;;;;;6.65;4.00;;;;;;;19.44;44.59;96996.16;10378554;28;20490;-72
2023/03/20 08:24:56;;;;;;;4.22;3.13;;;;;;;19.50;45.57;96994.91;10377869;28;20042;-72
2023/03/20 08:30:16;;;;;;;4.90;3.90;;;;;;;19.54;45.33;96990.44;10364258;28;20049;-72
2023/03/20 08:35:36;;;;;;;10.57;9.45;;;;;;;19.59;45.47;97000.28;10377859;28;20042;-72
2023/03/20 08:40:55;;;;;;;7.80;6.15;;;;;;;19.64;45.22;97004.72;10363855;28;20398;-72
2023/03/20 08:46:16;;;;;;;7.45;5.38;;;;;;;19.65;45.43;96996.31;10377395;28;20096;-72
2023/03/20 08:51:36;;;;;;;6.70;5.35;;;;;;;19.69;45.49;97023.50;10377105;28;20120;-72
2023/03/20 08:56:55;;;;;;;6.03;5.30;;;;;;;19.73;45.36;97013.66;10376361;28;20509;-72
2023/03/20 09:02:15;;;;;;;7.32;4.97;;;;;;;19.77;45.67;97021.91;10376728;28;20046;-72
2023/03/20 09:07:34;;;;;;;5.25;4.63;;;;;;;19.79;45.59;97012.38;10391429;28;20076;-72
2023/03/20 09:12:54;;;;;;;7.22;5.10;;;;;;;19.84;45.61;97011.44;10376326;28;20049;-72
2023/03/20 09:18:14;;;;;;;5.05;4.10;;;;;;;19.86;45.67;97004.56;10376110;28;20045;-72
2023/03/20 09:23:33;;;;;;;5.25;4.22;;;;;;;19.90;45.54;97000.13;10390498;28;20042;-72
2023/03/20 09:28:52;;;;;;;4.90;4.40;;;;;;;19.93;45.65;96995.97;10350775;28;20053;-73
2023/03/20 09:34:12;;;;;;;4.80;4.30;;;;;;;19.97;45.56;97002.31;10375520;28;20041;-72
2023/03/20 09:39:33;;;;;;;5.25;4.65;;;;;;;20.00;45.60;96998.19;10361402;28;20038;-72
2023/03/20 09:45:12;;;;;;;4.95;3.92;;;;;;;20.03;45.69;96989.41;10375625;28;20037;-73
2023/03/20 09:50:40;;;;;;;5.53;4.75;;;;;;;20.06;44.77;96992.28;10389682;28;20042;-72
2023/03/20 09:55:59;;;;;;;5.10;4.10;;;;;;;20.09;45.06;96983.53;10360608;28;20042;-72
2023/03/20 10:01:22;;;;;;;4.57;4.13;;;;;;;20.11;45.40;96989.41;10374390;28;20038;-72
2023/03/20 10:06:42;;;;;;;4.78;4.00;;;;;;;20.14;45.12;96986.03;10359996;28;20418;-72
2023/03/20 10:12:39;;;;;;;4.95;3.95;;;;;;;20.18;45.22;96980.78;10360243;28;20057;-73
2023/03/20 10:18:02;;;;;;;5.47;4.00;;;;;;;20.21;45.18;96972.03;10373669;28;20486;-73
2023/03/20 10:23:34;;;;;;;4.28;3.80;;;;;;;20.23;45.40;96972.50;10359877;28;20129;-72
2023/03/20 10:28:57;;;;;;;4.07;3.67;;;;;;;20.27;45.24;96965.31;10362516;28;20058;-73
2023/03/20 10:34:37;;;;;;;4.95;3.58;;;;;;;20.30;45.45;96967.38;10359408;28;20050;-72
2023/03/20 10:40:04;;;;;;;5.20;3.80;;;;;;;20.32;45.23;96962.41;10373011;28;20037;-72
2023/03/20 10:45:43;;;;;;;5.38;3.53;;;;;;;20.35;45.19;96948.25;10387697;28;20042;-72
2023/03/20 10:51:03;;;;;;;3.92;3.35;;;;;;;20.37;45.27;96947.94;10372847;28;20053;-72
2023/03/20 10:56:26;;;;;;;4.20;3.80;;;;;;;20.40;45.32;96949.19;10372543;28;20096;-72
2023/03/20 11:01:46;;;;;;;4.88;3.25;;;;;;;20.41;45.19;96943.47;10373227;28;20485;-73
2023/03/20 11:07:34;;;;;;;3.67;3.38;;;;;;;20.43;45.12;96924.19;10387375;28;20045;-72
2023/03/20 11:12:54;;;;;;;3.65;3.33;;;;;;;20.46;45.30;96932.44;10372482;28;20068;-72
2023/03/20 11:18:14;;;;;;;3.83;2.97;;;;;;;20.49;45.38;96931.00;10391596;28;20104;-73
2023/03/20 11:23:34;;;;;;;24.67;7.40;;;;;;;20.51;45.34;96926.84;10353160;28;20410;-73
2023/03/20 11:28:56;;;;;;;24.13;6.95;;;;;;;20.55;46.16;96929.69;10384090;28;20054;-73
2023/03/20 11:34:16;;;;;;;21.67;7.40;;;;;;;20.57;46.76;96932.88;10366267;28;20046;-73
2023/03/20 11:39:36;;;;;;;51.17;12.40;;;;;;;20.60;47.47;96929.53;10394808;28;20038;-73
2023/03/20 11:44:58;;;;;;;39.67;11.02;;;;;;;20.62;47.22;96930.00;10366639;28;20046;-76
2023/03/20 11:50:33;;;;;;;40.78;10.55;;;;;;;20.66;47.37;96930.13;10379546;28;20041;-76
2023/03/20 11:56:25;;;;;;;33.28;9.52;;;;;;;20.67;47.17;96923.59;10380544;28;20048;-76
2023/03/20 12:01:50;;;;;;;24.38;7.90;;;;;;;20.67;46.79;96916.25;10348285;28;20057;-76
2023/03/20 12:07:14;;;;;;;27.13;8.43;;;;;;;20.67;46.60;96908.16;10379075;28;20048;-77
2023/03/20 12:12:51;;;;;;;32.80;8.50;;;;;;;20.69;46.62;96903.19;10378719;28;20045;-77
2023/03/20 12:18:35;;;;;;;26.30;8.45;;;;;;;20.70;46.58;96899.38;10351282;28;20046;-77
2023/03/20 12:24:00;;;;;;;26.65;8.23;;;;;;;20.69;46.15;96895.06;10378179;28;20100;-77
2023/03/20 12:29:27;;;;;;;25.02;8.18;;;;;;;20.70;46.63;96899.38;10379762;28;20172;-76
2023/03/20 12:34:50;;;;;;;24.60;7.93;;;;;;;20.69;46.21;96886.94;10392628;28;20516;-77
2023/03/20 12:40:17;;;;;;;24.40;8.50;;;;;;;20.69;46.26;96886.94;10363926;28;20042;-76
2023/03/20 12:45:40;;;;;;;23.48;7.97;;;;;;;20.69;46.22;96889.66;10377595;28;20042;-77
2023/03/20 12:51:18;;;;;;;30.00;7.75;;;;;;;20.69;46.00;96891.56;10377361;28;20042;-77
2023/03/20 12:57:07;;;;;;;19.42;6.43;;;;;;;20.67;45.60;96883.78;10376965;28;20053;-76
2023/03/20 13:02:55;;;;;;;19.88;6.97;;;;;;;20.68;45.71;96887.28;10391551;28;20049;-77
2023/03/20 13:08:19;;;;;;;;;;;;;;;20.65;45.79;96887.94;10377967;28;20046;-76
2023/03/20 13:13:54;;;;;;;21.13;7.20;;;;;;;20.65;45.85;96909.59;10376561;28;19922;-77
2023/03/20 13:19:19;;;;;;;20.25;6.40;;;;;;;20.66;45.69;96913.88;10348906;28;20457;-77
2023/03/20 13:24:49;;;;;;;16.15;6.13;;;;;;;20.65;45.77;96906.91;10375910;28;20045;-76
2023/03/20 13:30:12;;;;;;;18.65;6.30;;;;;;;20.63;46.06;96898.31;10375628;28;20104;-76
2023/03/20 13:35:35;;;;;;;19.63;6.63;;;;;;;20.63;46.34;96901.03;10375516;28;20052;-76
2023/03/20 13:41:01;;;;;;;15.20;6.07;;;;;;;20.63;46.28;96884.78;10376916;28;20383;-73
2023/03/20 13:46:29;;;;;;;15.65;6.43;;;;;;;20.62;46.27;96866.94;10375098;28;20501;-73
2023/03/20 13:51:59;;;;;;;13.30;5.63;;;;;;;20.61;46.30;96870.78;10360894;28;20112;-73
2023/03/20 13:57:51;;;;;;;17.48;6.20;;;;;;;20.61;46.51;96866.16;10360867;28;20038;-73
2023/03/20 14:03:27;;;;;;;14.35;5.53;;;;;;;20.61;46.55;96874.28;10342350;28;20085;-73
2023/03/20 14:08:51;;;;;;;15.63;5.50;;;;;;;20.59;46.61;96864.88;10374344;28;20487;-73
2023/03/20 14:14:19;;;;;;;13.75;4.80;;;;;;;20.58;46.63;96864.09;10373996;28;20100;-73
2023/03/20 14:19:39;;;;;;;13.45;5.22;;;;;;;20.58;46.74;96858.69;10360145;28;20100;-73
2023/03/20 14:25:03;;;;;;;12.35;5.38;;;;;;;20.58;46.74;96853.25;10373240;28;20104;-73
2023/03/20 14:30:29;;;;;;;11.70;5.18;;;;;;;20.57;47.29;96854.38;10359625;28;20045;-73
2023/03/20 14:36:17;;;;;;;52.95;37.00;;;;;;;20.57;47.78;96857.06;10388095;28;20052;-73
2023/03/20 14:41:48;;;;;;;33.67;18.98;;;;;;;20.57;47.78;96859.00;10359728;28;20046;-73
2023/03/20 14:47:25;;;;;;;30.00;18.40;;;;;;;20.58;48.01;96855.16;10359294;28;20045;-73
2023/03/20 14:53:02;;;;;;;26.93;15.20;;;;;;;20.56;47.95;96860.88;10345356;28;20125;-72
2023/03/20 14:58:46;;;;;;;22.60;14.40;;;;;;;20.56;48.01;96855.47;10372636;28;20046;-73
2023/03/20 15:04:21;;;;;;;22.40;13.90;;;;;;;20.54;47.78;96850.41;10372456;28;20478;-73
2023/03/20 15:09:44;;;;;;;21.30;12.82;;;;;;;20.52;47.76;96841.03;10358989;28;20128;-73
2023/03/20 15:15:06;;;;;;;22.35;13.27;;;;;;;20.51;47.81;96842.16;10372428;28;20041;-73
2023/03/20 15:20:30;;;;;;;21.60;12.77;;;;;;;20.49;47.88;96839.78;10372233;28;20067;-73
2023/03/20 15:25:49;;;;;;;21.58;12.02;;;;;;;20.49;47.75;96830.88;10356014;28;20054;-73
2023/03/20 15:31:20;;;;;;;18.85;10.93;;;;;;;20.48;47.94;96835.50;10372112;28;20057;-73
2023/03/20 15:36:40;;;;;;;19.45;11.50;;;;;;;20.46;47.83;96832.31;10358169;28;20038;-74
2023/03/20 15:42:03;;;;;;;19.88;11.50;;;;;;;20.47;47.82;96833.13;10387129;28;20104;-76
2023/03/20 15:47:24;;;;;;;16.52;10.02;;;;;;;20.45;47.74;96835.38;10371735;28;20050;-77
2023/03/20 15:52:51;;;;;;;20.92;11.00;;;;;;;20.44;47.84;96833.75;10358093;28;20049;-76
2023/03/20 15:58:11;;;;;;;15.38;10.45;;;;;;;20.44;47.66;96831.06;10372138;28;20038;-77
2023/03/20 16:03:31;;;;;;;17.83;9.98;;;;;;;20.42;47.79;96836.78;10372745;28;20042;-77
2023/03/20 16:09:05;;;;;;;17.08;9.95;;;;;;;20.42;47.87;96838.72;10378807;28;20034;-77
2023/03/20 16:14:29;;;;;;;16.83;10.05;;;;;;;20.42;47.54;96836.00;10365060;28;20057;-77
2023/03/20 16:19:50;;;;;;;15.98;9.60;;;;;;;20.39;47.72;96837.47;10350907;28;20049;-77
2023/03/20 16:25:15;;;;;;;15.68;9.13;;;;;;;20.39;47.51;96842.09;10364481;28;20414;-76
2023/03/20 16:30:35;;;;;;;15.60;9.20;;;;;;;20.38;47.69;96843.97;10364619;28;20050;-77
2023/03/20 16:35:55;;;;;;;14.30;8.55;;;;;;;20.37;47.60;96845.13;10334631;28;20054;-77
2023/03/20 16:41:16;;;;;;;17.63;8.95;;;;;;;20.35;47.70;96844.66;10377741;28;20042;-77
2023/03/20 16:46:35;;;;;;;18.73;9.32;;;;;;;20.34;47.67;96851.97;10377820;28;20049;-77
2023/03/20 16:52:00;;;;;;;13.45;8.52;;;;;;;20.34;47.83;96859.28;10350265;28;20050;-77
2023/03/20 16:57:20;;;;;;;12.88;7.95;;;;;;;20.33;47.83;96866.63;10364043;28;20073;-77
2023/03/20 17:02:40;;;;;;;13.82;8.73;;;;;;;20.32;47.81;96875.06;10377693;28;20064;-77
2023/03/20 17:08:06;;;;;;;15.30;8.13;;;;;;;20.31;48.05;96882.38;10377774;28;20045;-76
2023/03/20 17:13:26;;;;;;;14.20;8.00;;;;;;;20.30;48.03;96891.59;10377567;28;20041;-76
2023/03/20 17:18:58;;;;;;;12.43;7.90;;;;;;;20.30;48.23;96888.13;10364239;28;20408;-75
2023/03/20 17:24:18;;;;;;;12.40;7.68;;;;;;;20.29;48.21;96883.84;10378181;28;20049;-75
2023/03/20 17:29:39;;;;;;;10.73;7.50;;;;;;;20.27;48.23;96889.56;10363701;28;20572;-75
2023/03/20 17:34:58;;;;;;;13.63;7.80;;;;;;;20.26;48.51;96896.09;10362592;28;20044;-77
2023/03/20 17:40:21;;;;;;;14.60;7.97;;;;;;;20.27;48.05;96902.31;10391213;28;20072;-74
2023/03/20 17:45:42;;;;;;;13.60;7.53;;;;;;;20.26;48.97;96900.72;10361506;28;20497;-73
2023/03/20 17:51:01;;;;;;;13.77;7.65;;;;;;;20.25;49.40;96894.53;10375077;28;20046;-73
2023/03/20 17:56:21;;;;;;;12.57;7.25;;;;;;;20.25;49.82;96886.41;10361019;28;20088;-73
2023/03/20 18:01:41;;;;;;;14.18;9.05;;;;;;;20.24;49.55;96892.91;10374756;28;20038;-73
2023/03/20 18:07:01;;;;;;;11.88;7.25;;;;;;;20.25;50.69;96893.72;10360598;28;20041;-73
2023/03/20 18:12:21;;;;;;;10.85;6.70;;;;;;;20.23;50.92;96898.66;10346868;28;20042;-73
2023/03/20 18:17:40;;;;;;;10.35;6.55;;;;;;;20.22;50.63;96905.97;10374028;28;20089;-80
2023/03/20 18:23:00;;;;;;;8.48;5.20;;;;;;;20.21;50.82;96909.81;10360342;28;20513;-75
2023/03/20 18:28:21;;;;;;;7.47;5.32;;;;;;;20.21;50.50;96914.41;10364621;28;20551;-77
2023/03/20 18:33:41;;;;;;;8.82;5.88;;;;;;;20.19;50.31;96917.47;10361159;28;20046;-77
2023/03/20 18:39:01;;;;;;;7.90;5.47;;;;;;;20.19;50.02;96911.25;10346272;28;20478;-72
2023/03/20 18:44:21;;;;;;;5.72;4.88;;;;;;;20.19;49.71;96916.66;10373083;28;20038;-72
2023/03/20 18:49:40;;;;;;;8.65;5.00;;;;;;;20.17;49.85;96927.00;10345556;28;20445;-72
2023/03/20 18:55:00;;;;;;;8.60;5.20;;;;;;;20.16;49.91;96920.81;10372957;28;20038;-75
2023/03/20 19:00:25;;;;;;;7.40;4.85;;;;;;;20.15;49.64;96919.25;10373353;28;20046;-75
2023/03/20 19:05:45;;;;;;;7.93;4.43;;;;;;;20.15;49.52;96911.13;10346096;28;20478;-75
2023/03/20 19:11:05;;;;;;;8.02;4.43;;;;;;;20.12;49.46;96907.13;10372776;28;20045;-74
2023/03/20 19:16:27;;;;;;;7.90;4.88;;;;;;;20.13;49.54;96910.63;10359095;28;20387;-75
2023/03/20 19:21:46;;;;;;;7.47;4.40;;;;;;;20.10;49.46;96912.06;10345717;28;20046;-74
2023/03/20 19:27:08;;;;;;;6.35;4.10;;;;;;;20.09;49.42;96907.81;10366338;28;20061;-73
2023/03/20 19:32:27;;;;;;;6.13;4.40;;;;;;;20.09;49.68;96907.00;10372147;28;20498;-72
2023/03/20 19:37:46;;;;;;;7.13;4.50;;;;;;;20.09;50.06;96907.00;10374150;28;20536;-74
2023/03/20 19:43:06;;;;;;;6.32;4.53;;;;;;;20.10;50.10;96908.59;10366442;28;20042;-73
2023/03/20 19:48:29;;;;;;;8.45;5.35;;;;;;;20.09;50.52;96921.31;10352457;28;20532;-73
2023/03/20 19:53:49;;;;;;;8.18;5.45;;;;;;;20.11;50.98;96915.56;10365868;28;20050;-72
2023/03/20 19:59:09;;;;;;;11.90;5.85;;;;;;;20.10;51.42;96912.06;10379434;28;20050;-72
2023/03/20 20:04:28;;;;;;;7.47;5.47;;;;;;;20.11;51.27;96913.69;10379293;28;20053;-73
2023/03/20 20:09:47;;;;;;;10.02;6.28;;;;;;;20.14;51.96;96925.75;10379810;28;20509;-72
2023/03/20 20:15:08;;;;;;;8.05;5.70;;;;;;;20.12;52.20;96914.47;10365027;28;20042;-72
2023/03/20 20:20:28;;;;;;;8.27;5.90;;;;;;;20.11;51.83;96910.97;10364652;28;20041;-72
2023/03/20 20:25:49;;;;;;;6.70;5.20;;;;;;;20.10;51.88;96909.38;10362179;28;20065;-72
2023/03/20 20:31:09;;;;;;;7.18;5.35;;;;;;;20.10;51.62;96919.41;10378270;28;20045;-72
2023/03/20 20:36:28;;;;;;;7.55;5.03;;;;;;;20.09;51.53;96909.69;10377941;28;20038;-72
2023/03/20 20:41:48;;;;;;;3.95;2.85;;;;;;;20.03;46.56;96916.41;10363906;28;20061;-72
2023/03/20 20:47:08;;;;;;;2.78;2.30;;;;;;;19.73;42.82;96917.13;10377731;28;20038;-73
2023/03/20 20:52:27;;;;;;;2.83;2.15;;;;;;;19.51;41.15;96922.72;10363526;28;20070;-73
2023/03/20 20:57:47;;;;;;;2.75;2.22;;;;;;;19.36;40.49;96924.00;10363330;28;20514;-73
2023/03/20 21:03:07;;;;;;;3.60;2.47;;;;;;;19.27;40.32;96931.34;10376876;28;20483;-73
2023/03/20 21:08:27;;;;;;;3.20;2.42;;;;;;;19.15;39.99;96926.56;10376772;28;20049;-73
2023/03/20 21:13:52;;;;;;;2.95;2.30;;;;;;;19.13;40.03;96926.09;10377813;28;20049;-72
2023/03/20 21:19:11;;;;;;;2.38;2.05;;;;;;;19.25;41.85;96923.56;10377551;28;20042;-72
2023/03/20 21:24:32;;;;;;;3.03;2.25;;;;;;;19.39;42.63;96930.69;10362309;28;20038;-72
2023/03/20 21:29:52;;;;;;;2.42;2.10;;;;;;;19.47;43.02;96921.78;10348693;28;20406;-72
2023/03/20 21:35:11;;;;;;;2.33;2.13;;;;;;;19.53;43.15;96923.19;10390477;28;20042;-73
2023/03/20 21:40:31;;;;;;;2.50;2.30;;;;;;;19.54;43.52;96909.38;10375435;28;20506;-72
2023/03/20 21:45:50;;;;;;;2.60;2.05;;;;;;;19.54;43.75;96909.38;10361609;28;20050;-73
2023/03/20 21:51:10;;;;;;;3.08;2.08;;;;;;;19.56;43.89;96915.25;10374955;28;20387;-72
2023/03/20 21:56:29;;;;;;;3.33;2.10;;;;;;;19.57;44.14;96918.75;10360891;28;20050;-72
2023/03/20 22:01:49;;;;;;;3.17;2.20;;;;;;;19.58;44.46;96914.13;10375735;28;20402;-72
2023/03/20 22:07:08;;;;;;;2.88;2.20;;;;;;;19.56;44.83;96907.16;10374483;28;20117;-72
2023/03/20 22:12:28;;;;;;;2.78;1.92;;;;;;;19.56;44.67;96917.94;10374211;28;20390;-72
2023/03/20 22:17:49;;;;;;;2.65;1.85;;;;;;;19.56;44.98;96917.94;10360304;28;20053;-72
2023/03/20 22:23:09;;;;;;;2.08;1.83;;;;;;;19.56;44.98;96914.44;10374575;28;20379;-73
2023/03/20 22:28:29;;;;;;;2.55;1.88;;;;;;;19.55;45.16;96920.97;10350358;28;20061;-73
2023/03/20 22:33:49;;;;;;;2.00;1.80;;;;;;;19.54;45.25;96913.97;10373420;28;20048;-72
2023/03/20 22:39:09;;;;;;;2.28;2.08;;;;;;;19.53;45.45;96913.19;10346052;28;20100;-72
2023/03/20 22:44:28;;;;;;;2.22;2.03;;;;;;;19.53;45.56;96910.47;10373611;28;20042;-73
2023/03/20 22:49:47;;;;;;;1.90;1.70;;;;;;;19.51;45.78;96907.31;10387842;28;20041;-73
2023/03/20 22:55:08;;;;;;;2.30;1.95;;;;;;;19.52;45.84;96908.91;10359175;28;20042;-73
2023/03/20 23:00:27;;;;;;;3.42;1.90;;;;;;;19.51;45.78;96912.72;10359038;28;20403;-73
2023/03/20 23:05:47;;;;;;;2.42;2.05;;;;;;;19.51;46.05;96909.22;10372739;28;20053;-73
2023/03/20 23:11:08;;;;;;;1.98;1.77;;;;;;;19.50;46.10;96913.03;10358862;28;20124;-73
2023/03/20 23:16:28;;;;;;;2.05;1.80;;;;;;;19.48;46.16;96910.66;10387195;28;20033;-73
2023/03/20 23:21:47;;;;;;;2.17;1.80;;;;;;;19.47;46.30;96911.75;10358438;28;20054;-73
2023/03/20 23:27:07;;;;;;;1.90;1.70;;;;;;;19.46;46.21;96912.06;10338662;28;20057;-73
2023/03/20 23:32:26;;;;;;;1.95;1.63;;;;;;;19.45;46.39;96916.69;10372084;28;20099;-73
2023/03/20 23:37:46;;;;;;;1.90;1.70;;;;;;;19.46;46.39;96920.19;10372065;28;20042;-73
2023/03/20 23:43:06;;;;;;;2.00;1.70;;;;;;;19.44;46.55;96925.91;10373057;28;20111;-72
2023/03/20 23:48:25;;;;;;;1.75;1.65;;;;;;;19.43;46.58;96918.94;10371684;28;20099;-72
2023/03/20 23:53:44;;;;;;;1.90;1.70;;;;;;;19.42;46.64;96911.91;10357999;28;20057;-72
2023/03/20 23:59:04;;;;;;;3.15;1.85;;;;;;;19.41;46.73;96910.34;10371710;28;20049;-72
